หน้าหลัก
METAR-TAF:

METAR-TAF

ท่าอากาศยาน :

McKinley Park, อะแลสกา, สหรัฐอเมริกา

ละติจูด: 63-44N, ลองจิจูด: 148-55W, ความสูง: 524 ม.

การสังเกตสภาพอากาศปัจจุบัน

รายงานได้ทำขึ้นเมื่อ 49 นาทีที่แล้ว ณ เวลา 21:56 UTC
ลม 9 นอตจากใต้/ตะวันออกเฉียงใต้
อุณหภูมิ 12°C
ความชื้น 44%
ความกดอากาศ 1003 hPa
ทัศนวิสัย: 16.1 กม.
ท้องฟ้าแจ่มใส

METAR: PAIN 242156Z AUTO 16009KT 10SM CLR 12/00 A2961 RMK AO2 SLP038 T01220000

เวลา: 14:45 (22:45 UTC)


TAF: หายไป

สังเกตการณ์สภาพอากาศและพยากรณ์อากาศของสนามบินมากกว่า 4000 แห่ง (รายงาน METAR และ TAF).

สถานีที่ดูได้จะแสดงไว้ด้วยจุดสีเหลืองและสีแดงบนแผนที่.

เลื่อนเมาส์ไปเหนือจุดเพื่อดูชื่อสถานี.

แล้วคลิกเพื่อดูสังเกตการณ์และการพยากรณ์สภาพอากาศ.

ในการเปลี่ยนแผนที่: คลิกที่ปุ่มสีเขียวที่มีกากบาทสีดำเพื่อซูมเข้า; ที่ปุ่มสีเขียวที่มีขีดเพื่อซูมออก; หรือที่ลูกศรสีเขียวเพื่อไปยังแผนที่ที่อยู่ติดกัน.


METAR-TAF: